Rugby, North Dakota
Current Conditions -  °F | °C
As of 12:15 PM on Thursday 18 Dec 2014 (Local Time) from KRUG Reporting Station
Haze Haze  
Wind Chill:   Ceiling: 600
Heat Index: 16°   Visibility: 4mi
Dew Point: 16°   Wind: 7mph
Humidity: 100%   Direction: 150°SSE
Pressure: 30.08"   Gusts: NA
Location:  48.37°N, 100°W
Report Text: KRUG 181815Z AUTO 15006KT 4SM BR OVC006 M09/M09 A3008 RMK AO2
Loading
Personal Weather Stations






























Interactive Weather Map New forecast layout! Learn more

10-Day Weather Forecast

Advertisements
Track Severe Weather on mobile